Time;durP1;ratioP1;P1;durP2;ratioP2;P2;SDS_P1;SDS_P2;PMS_P1;PMS_P2;Temp;Humidity;BMP_temperature;BMP_pressure;BME280_temperature;BME280_humidity;BME280_pressure;Samples;Min_cycle;Max_cycle;Signal;HPM_P1;HPM_P2
2023/06/18 00:01:18;;;;;;;;;;;20.90;99.90;;;;;;5033904;28;19992;-78
2023/06/18 00:03:44;;;;;;;;;;;20.90;99.90;;;;;;5018903;28;19913;-67
2023/06/18 00:06:10;;;;;;;;;;;20.90;99.90;;;;;;5017832;28;19917;-67
2023/06/18 00:08:35;;;;;;;;;;;20.90;99.90;;;;;;5033185;28;19977;-68
2023/06/18 00:11:01;;;;;;;;;;;20.90;99.90;;;;;;5018486;28;19906;-67
2023/06/18 00:13:26;;;;;;;;;;;20.90;99.90;;;;;;5009269;28;19959;-78
2023/06/18 00:15:52;;;;;;;;;;;20.80;99.90;;;;;;5015435;28;20351;-67
2023/06/18 00:18:17;;;;;;;;;;;20.80;99.90;;;;;;5017039;28;20355;-78
2023/06/18 00:20:43;;;;;;;;;;;20.80;99.90;;;;;;5018420;28;20311;-67
2023/06/18 00:23:08;;;;;;;;;;;20.80;99.90;;;;;;5017776;28;19949;-67
2023/06/18 00:25:35;;;;;;;;;;;20.80;99.90;;;;;;5017616;28;21039;-67
2023/06/18 00:28:01;;;;;;;;;;;20.80;99.90;;;;;;5027061;28;19909;-67
2023/06/18 00:30:26;;;;;;;;;;;20.80;99.90;;;;;;5017545;28;19992;-67
2023/06/18 00:32:52;;;;;;;;;;;20.80;99.90;;;;;;5017183;28;19953;-67
2023/06/18 00:35:18;;;;;;;;;;;20.80;99.90;;;;;;5017210;28;19916;-67
2023/06/18 00:37:43;;;;;;;;;;;20.80;99.90;;;;;;5016727;28;19921;-67
2023/06/18 00:40:13;;;;;;;;;;;20.80;99.90;;;;;;5017149;28;19909;-66
2023/06/18 00:42:39;;;;;;;;;;;20.80;99.90;;;;;;5016043;28;19909;-67
2023/06/18 00:45:08;;;;;;;;;;;20.70;99.90;;;;;;5007335;28;19976;-67
2023/06/18 00:47:34;;;;;;;;;;;20.70;99.90;;;;;;5015289;28;19924;-66
2023/06/18 00:50:00;;;;;;;;;;;20.70;99.90;;;;;;5016649;28;19925;-67
2023/06/18 00:52:27;;;;;;;;;;;20.70;99.90;;;;;;5017185;28;19909;-78
2023/06/18 00:54:52;;;;;;;;;;;20.70;99.90;;;;;;5017285;28;19952;-67
2023/06/18 00:57:20;;;;;;;;;;;20.60;99.90;;;;;;5016085;28;19996;-67
2023/06/18 00:59:46;;;;;;;;;;;20.60;99.90;;;;;;5016709;28;20327;-66
2023/06/18 01:02:12;;;;;;;;;;;20.60;99.90;;;;;;5016758;28;19909;-67
2023/06/18 01:04:38;;;;;;;;;;;20.60;99.90;;;;;;5017330;28;19960;-66
2023/06/18 01:07:12;;;;;;;;;;;20.50;99.90;;;;;;5017258;28;19909;-66
2023/06/18 01:09:38;;;;;;;;;;;20.50;99.90;;;;;;5017934;28;19909;-67
2023/06/18 01:12:04;;;;;;;;;;;20.50;99.90;;;;;;5014744;28;20296;-67
2023/06/18 01:14:30;;;;;;;;;;;20.50;99.90;;;;;;5016760;28;20260;-66
2023/06/18 01:16:57;;;;;;;;;;;20.40;99.90;;;;;;5016513;28;19910;-79
2023/06/18 01:19:39;;;;;;;;;;;20.40;99.90;;;;;;5017429;28;19905;-78
2023/06/18 01:22:14;;;;;;;;;;;20.40;99.90;;;;;;5003978;28;20462;-66
2023/06/18 01:24:47;;;;;;;;;;;20.40;99.90;;;;;;5016336;28;19909;-67
2023/06/18 01:27:12;;;;;;;;;;;20.40;99.90;;;;;;5011661;28;20208;-67
2023/06/18 01:29:39;;;;;;;;;;;20.30;99.90;;;;;;5016348;28;19909;-67
2023/06/18 01:32:05;;;;;;;;;;;20.30;99.90;;;;;;5016402;28;20020;-67
2023/06/18 01:34:30;;;;;;;;;;;20.20;99.90;;;;;;5015943;28;19996;-67
2023/06/18 01:37:09;;;;;;;;;;;20.20;99.90;;;;;;5016672;28;19917;-67
2023/06/18 01:39:39;;;;;;;;;;;20.10;99.90;;;;;;5016016;28;19940;-67
2023/06/18 01:42:12;;;;;;;;;;;20.10;99.90;;;;;;5012840;28;19909;-66
2023/06/18 01:44:38;;;;;;;;;;;20.10;99.90;;;;;;5014470;28;19976;-78
2023/06/18 01:47:04;;;;;;;;;;;20.00;99.90;;;;;;5012870;28;19909;-67
2023/06/18 01:49:30;;;;;;;;;;;19.90;99.90;;;;;;5016016;28;19923;-67
2023/06/18 01:51:57;;;;;;;;;;;19.90;99.90;;;;;;5016237;28;19909;-67
2023/06/18 01:54:23;;;;;;;;;;;19.80;99.90;;;;;;5016738;28;19909;-78
2023/06/18 01:56:49;;;;;;;;;;;19.80;99.90;;;;;;5016535;28;20304;-67
2023/06/18 01:59:15;;;;;;;;;;;19.80;99.90;;;;;;5016133;28;20016;-66
2023/06/18 02:01:41;;;;;;;;;;;19.70;99.90;;;;;;5016073;28;20028;-69
2023/06/18 02:04:06;;;;;;;;;;;19.70;99.90;;;;;;5016698;28;20361;-67
2023/06/18 02:06:32;;;;;;;;;;;19.60;99.90;;;;;;5015932;28;19932;-67
2023/06/18 02:08:58;;;;;;;;;;;19.60;99.90;;;;;;5032042;28;19905;-67
2023/06/18 02:11:24;;;;;;;;;;;19.60;99.90;;;;;;5015960;28;19928;-67
2023/06/18 02:13:49;;;;;;;;;;;19.50;99.90;;;;;;5016111;28;20319;-67
2023/06/18 02:16:15;;;;;;;;;;;19.50;99.90;;;;;;5016042;28;20316;-67
2023/06/18 02:18:41;;;;;;;;;;;19.40;99.90;;;;;;5016451;28;19909;-67
2023/06/18 02:21:07;;;;;;;;;;;19.40;99.90;;;;;;5015442;28;20004;-67
2023/06/18 02:23:33;;;;;;;;;;;19.40;99.90;;;;;;5015479;28;19962;-67
2023/06/18 02:25:59;;;;;;;;;;;19.30;99.90;;;;;;5015525;28;19909;-66
2023/06/18 02:28:24;;;;;;;;;;;19.30;99.90;;;;;;5015583;28;19913;-67
2023/06/18 02:30:50;;;;;;;;;;;19.20;99.90;;;;;;5015251;28;19913;-67
2023/06/18 02:33:17;;;;;;;;;;;19.20;99.90;;;;;;5016860;28;20235;-67
2023/06/18 02:35:43;;;;;;;;;;;19.10;99.90;;;;;;5015850;28;19941;-66
2023/06/18 02:38:08;;;;;;;;;;;19.10;99.90;;;;;;5015082;28;19957;-66
2023/06/18 02:40:34;;;;;;;;;;;19.10;99.90;;;;;;5014943;28;19910;-67
2023/06/18 02:43:01;;;;;;;;;;;19.10;99.90;;;;;;5014598;28;19917;-67
2023/06/18 02:45:27;;;;;;;;;;;19.00;99.90;;;;;;5016068;28;20007;-79
2023/06/18 02:47:53;;;;;;;;;;;19.00;99.90;;;;;;5030484;28;19996;-67
2023/06/18 02:50:19;;;;;;;;;;;19.00;99.90;;;;;;5014394;28;19917;-66
2023/06/18 02:52:46;;;;;;;;;;;18.90;99.90;;;;;;5015195;28;19909;-67
2023/06/18 02:55:13;;;;;;;;;;;18.80;99.90;;;;;;5014217;28;20063;-67
2023/06/18 02:57:39;;;;;;;;;;;18.80;99.90;;;;;;5015515;28;19924;-66
2023/06/18 03:00:06;;;;;;;;;;;18.80;99.90;;;;;;5014491;28;19913;-67
2023/06/18 03:02:32;;;;;;;;;;;18.80;99.90;;;;;;5013925;28;19909;-78
2023/06/18 03:04:58;;;;;;;;;;;18.70;99.90;;;;;;5014038;28;20367;-67
2023/06/18 03:07:23;;;;;;;;;;;18.80;99.90;;;;;;5015471;28;20016;-67
2023/06/18 03:09:49;;;;;;;;;;;18.80;99.90;;;;;;5014346;28;20315;-67
2023/06/18 03:12:15;;;;;;;;;;;18.70;99.90;;;;;;5014438;28;20328;-67
2023/06/18 03:14:40;;;;;;;;;;;18.80;99.90;;;;;;5011146;28;19909;-67
2023/06/18 03:17:06;;;;;;;;;;;18.70;99.90;;;;;;5014418;28;20233;-67
2023/06/18 03:19:31;;;;;;;;;;;18.70;99.90;;;;;;5013409;28;19905;-67
2023/06/18 03:21:57;;;;;;;;;;;18.70;99.90;;;;;;5015408;28;19909;-67
2023/06/18 03:24:24;;;;;;;;;;;18.70;99.90;;;;;;5001594;28;19948;-67
2023/06/18 03:26:50;;;;;;;;;;;18.70;99.90;;;;;;5014514;28;19948;-67
2023/06/18 03:29:16;;;;;;;;;;;18.60;99.90;;;;;;5014958;28;19955;-78
2023/06/18 03:31:41;;;;;;;;;;;18.50;99.90;;;;;;5015220;28;19906;-67
2023/06/18 03:34:08;;;;;;;;;;;18.50;99.90;;;;;;5014730;28;19916;-67
2023/06/18 03:36:39;;;;;;;;;;;18.50;99.90;;;;;;5014342;28;19997;-67
2023/06/18 03:39:05;;;;;;;;;;;18.50;99.90;;;;;;5014763;28;19917;-67
2023/06/18 03:41:31;;;;;;;;;;;18.60;99.90;;;;;;5019709;28;20286;-67
2023/06/18 03:43:57;;;;;;;;;;;18.50;99.90;;;;;;5018147;28;19932;-67
2023/06/18 03:46:22;;;;;;;;;;;18.50;99.90;;;;;;5017389;28;19916;-77
2023/06/18 03:48:48;;;;;;;;;;;18.50;99.90;;;;;;5018083;28;19954;-67
2023/06/18 03:51:14;;;;;;;;;;;18.50;99.90;;;;;;5018836;28;20208;-67
2023/06/18 03:53:40;;;;;;;;;;;18.50;99.90;;;;;;5020093;28;19917;-67
2023/06/18 03:56:08;;;;;;;;;;;18.50;99.90;;;;;;5018311;28;19935;-67
2023/06/18 03:58:33;;;;;;;;;;;18.50;99.90;;;;;;5023257;28;19920;-67
2023/06/18 04:00:59;;;;;;;;;;;18.50;99.90;;;;;;5019134;28;19909;-67
2023/06/18 04:03:25;;;;;;;;;;;18.60;99.90;;;;;;5022230;28;19909;-66
2023/06/18 04:05:52;;;;;;;;;;;18.50;99.90;;;;;;5036193;28;19928;-67
2023/06/18 04:08:18;;;;;;;;;;;18.50;99.90;;;;;;5016384;28;19988;-66
2023/06/18 04:10:45;;;;;;;;;;;18.50;99.90;;;;;;5037951;28;20264;-67
2023/06/18 04:13:18;;;;;;;;;;;18.60;99.90;;;;;;5039154;28;20286;-67
2023/06/18 04:15:44;;;;;;;;;;;18.60;99.90;;;;;;5021415;28;20024;-67
2023/06/18 04:18:10;;;;;;;;;;;18.70;99.90;;;;;;5016379;28;20004;-66
2023/06/18 04:20:35;;;;;;;;;;;18.80;99.90;;;;;;5020629;28;19955;-76
2023/06/18 04:23:01;;;;;;;;;;;18.70;99.90;;;;;;5021104;28;19937;-67
2023/06/18 04:25:26;;;;;;;;;;;18.80;99.90;;;;;;5024111;28;19912;-66
2023/06/18 04:27:52;;;;;;;;;;;18.80;99.90;;;;;;5019270;28;19916;-66
2023/06/18 04:30:18;;;;;;;;;;;18.90;99.90;;;;;;5024229;28;20430;-78
2023/06/18 04:32:44;;;;;;;;;;;18.90;99.90;;;;;;5024581;28;19917;-67
2023/06/18 04:35:10;;;;;;;;;;;18.90;99.90;;;;;;5020613;28;19917;-67
2023/06/18 04:37:38;;;;;;;;;;;18.80;99.90;;;;;;5021510;28;19910;-67
2023/06/18 04:40:07;;;;;;;;;;;18.80;99.90;;;;;;5022963;28;20000;-67
2023/06/18 04:42:33;;;;;;;;;;;18.80;99.90;;;;;;5017358;28;19905;-66
2023/06/18 04:44:58;;;;;;;;;;;18.80;99.90;;;;;;5028581;28;19909;-66
2023/06/18 04:47:24;;;;;;;;;;;18.80;99.90;;;;;;5020163;28;19952;-67
2023/06/18 04:49:50;;;;;;;;;;;18.80;99.90;;;;;;5024398;28;19919;-67
2023/06/18 04:52:15;;;;;;;;;;;18.80;99.90;;;;;;5020431;28;20004;-67
2023/06/18 04:54:41;;;;;;;;;;;18.90;99.90;;;;;;5021425;28;19945;-66
2023/06/18 04:57:07;;;;;;;;;;;18.80;99.90;;;;;;5019227;28;19921;-67
2023/06/18 04:59:34;;;;;;;;;;;18.90;99.90;;;;;;5021534;28;19916;-67
2023/06/18 05:02:00;;;;;;;;;;;18.90;99.90;;;;;;5024802;28;19913;-67
2023/06/18 05:04:26;;;;;;;;;;;19.00;99.90;;;;;;5021115;28;19905;-79
2023/06/18 05:06:51;;;;;;;;;;;19.00;99.90;;;;;;5038981;28;19908;-67
2023/06/18 05:09:18;;;;;;;;;;;19.10;99.90;;;;;;5019932;28;20316;-66
2023/06/18 05:11:44;;;;;;;;;;;19.10;99.90;;;;;;5019739;28;19913;-66
2023/06/18 05:14:09;;;;;;;;;;;19.20;99.90;;;;;;5019183;28;19914;-79
2023/06/18 05:16:35;;;;;;;;;;;19.20;99.90;;;;;;5022160;28;20350;-67
2023/06/18 05:19:01;;;;;;;;;;;19.20;99.90;;;;;;5024030;28;19913;-66
2023/06/18 05:21:26;;;;;;;;;;;19.30;99.90;;;;;;5018118;28;20208;-66
2023/06/18 05:23:52;;;;;;;;;;;19.40;99.90;;;;;;5023640;28;19911;-67
2023/06/18 05:26:18;;;;;;;;;;;19.50;99.90;;;;;;5019924;28;20319;-67
2023/06/18 05:28:43;;;;;;;;;;;19.50;99.90;;;;;;5021586;28;20309;-67
2023/06/18 05:31:09;;;;;;;;;;;19.60;99.90;;;;;;5021734;28;19905;-81
2023/06/18 05:33:35;;;;;;;;;;;19.60;99.90;;;;;;5022044;28;20024;-67
2023/06/18 05:36:00;;;;;;;;;;;19.70;99.90;;;;;;5021477;28;19917;-75
2023/06/18 05:38:26;;;;;;;;;;;19.70;99.90;;;;;;5019349;28;20296;-66
2023/06/18 05:40:51;;;;;;;;;;;19.80;99.90;;;;;;5022165;28;19905;-67
2023/06/18 05:43:17;;;;;;;;;;;19.80;99.90;;;;;;5022591;28;19906;-66
2023/06/18 05:45:43;;;;;;;;;;;19.90;99.90;;;;;;5030158;28;19909;-67
2023/06/18 05:48:09;;;;;;;;;;;20.00;99.90;;;;;;5023149;28;20219;-67
2023/06/18 05:50:35;;;;;;;;;;;20.10;99.90;;;;;;5015786;28;19913;-67
2023/06/18 05:53:01;;;;;;;;;;;20.10;99.90;;;;;;5019228;28;20028;-67
2023/06/18 05:55:27;;;;;;;;;;;20.20;99.90;;;;;;5019573;28;20821;-77
2023/06/18 05:57:53;;;;;;;;;;;20.40;99.90;;;;;;5015982;28;19956;-67
2023/06/18 06:00:18;;;;;;;;;;;20.50;99.90;;;;;;5027303;28;20004;-65
2023/06/18 06:02:45;;;;;;;;;;;20.60;99.90;;;;;;5020440;28;19971;-65
2023/06/18 06:05:11;;;;;;;;;;;20.60;99.90;;;;;;5022430;28;19913;-66
2023/06/18 06:07:36;;;;;;;;;;;20.60;99.90;;;;;;5020068;28;19931;-67
2023/06/18 06:10:02;;;;;;;;;;;20.50;99.90;;;;;;5040676;28;19996;-66
2023/06/18 06:12:27;;;;;;;;;;;20.50;99.90;;;;;;5045284;28;19958;-67
2023/06/18 06:14:53;;;;;;;;;;;20.50;99.90;;;;;;5039575;28;19921;-66
2023/06/18 06:17:19;;;;;;;;;;;20.40;99.90;;;;;;5031353;28;20310;-66
2023/06/18 06:19:45;;;;;;;;;;;20.50;99.90;;;;;;5023596;28;19909;-66
2023/06/18 06:22:11;;;;;;;;;;;20.60;99.90;;;;;;5028628;28;19917;-67
2023/06/18 06:24:36;;;;;;;;;;;20.70;99.90;;;;;;5024029;28;19909;-78
2023/06/18 06:27:02;;;;;;;;;;;20.70;99.90;;;;;;5023902;28;20008;-67
2023/06/18 06:29:28;;;;;;;;;;;20.80;99.90;;;;;;5032410;28;19916;-66
2023/06/18 06:31:53;;;;;;;;;;;21.00;99.90;;;;;;5020910;28;19910;-65
2023/06/18 06:34:20;;;;;;;;;;;21.00;99.90;;;;;;5017963;28;20696;-79
2023/06/18 06:36:46;;;;;;;;;;;21.20;99.90;;;;;;5022964;28;19968;-66
2023/06/18 06:39:11;;;;;;;;;;;21.20;99.90;;;;;;5021321;28;19909;-66
2023/06/18 06:41:37;;;;;;;;;;;21.30;99.90;;;;;;5033187;28;19905;-66
2023/06/18 06:44:03;;;;;;;;;;;21.40;99.90;;;;;;5026313;28;19951;-66
2023/06/18 06:46:28;;;;;;;;;;;21.50;99.90;;;;;;5039616;28;20003;-66
2023/06/18 06:48:54;;;;;;;;;;;21.60;99.90;;;;;;5020514;28;19956;-66
2023/06/18 06:51:20;;;;;;;;;;;21.80;99.90;;;;;;5029599;28;19967;-80
2023/06/18 06:53:46;;;;;;;;;;;21.90;99.90;;;;;;5019981;28;19909;-66
2023/06/18 06:56:11;;;;;;;;;;;22.00;99.90;;;;;;5016390;28;19906;-67
2023/06/18 06:58:37;;;;;;;;;;;22.10;99.90;;;;;;5017398;28;20308;-66
2023/06/18 07:01:02;;;;;;;;;;;22.20;99.90;;;;;;5021347;28;19920;-66
2023/06/18 07:03:28;;;;;;;;;;;22.20;99.90;;;;;;5019929;28;19975;-66
2023/06/18 07:05:54;;;;;;;;;;;22.30;99.90;;;;;;5022575;28;19958;-66
2023/06/18 07:08:20;;;;;;;;;;;22.30;99.90;;;;;;5044336;28;20027;-67
2023/06/18 07:10:45;;;;;;;;;;;22.30;99.90;;;;;;5037796;28;19951;-67
2023/06/18 07:13:12;;;;;;;;;;;22.30;99.90;;;;;;5017555;28;20285;-67
2023/06/18 07:15:37;;;;;;;;;;;22.30;99.90;;;;;;5023414;28;20046;-67
2023/06/18 07:18:03;;;;;;;;;;;22.30;99.90;;;;;;5020100;28;19984;-75
2023/06/18 07:20:29;;;;;;;;;;;22.30;99.90;;;;;;5027101;28;19905;-67
2023/06/18 07:22:54;;;;;;;;;;;22.20;99.90;;;;;;5028770;28;19913;-67
2023/06/18 07:25:20;;;;;;;;;;;22.10;99.90;;;;;;5020190;28;19913;-66
2023/06/18 07:27:46;;;;;;;;;;;22.00;99.90;;;;;;5032126;28;19999;-67
2023/06/18 07:30:12;;;;;;;;;;;22.00;99.90;;;;;;5028893;28;19905;-67
2023/06/18 07:32:37;;;;;;;;;;;22.00;99.90;;;;;;5031656;28;19921;-67
2023/06/18 07:35:03;;;;;;;;;;;22.00;99.90;;;;;;5014931;28;19960;-66
2023/06/18 07:37:29;;;;;;;;;;;21.90;99.90;;;;;;5015415;28;19917;-79
2023/06/18 07:39:55;;;;;;;;;;;21.90;99.90;;;;;;5013856;28;19914;-78
2023/06/18 07:42:20;;;;;;;;;;;21.90;99.90;;;;;;5015258;28;20373;-66
2023/06/18 07:44:46;;;;;;;;;;;22.00;99.90;;;;;;5014588;28;19906;-78
2023/06/18 07:47:12;;;;;;;;;;;22.00;99.90;;;;;;5010162;28;19914;-67
2023/06/18 07:49:37;;;;;;;;;;;22.20;99.90;;;;;;5014598;28;19928;-66
2023/06/18 07:52:03;;;;;;;;;;;22.20;99.90;;;;;;5015127;28;19949;-67
2023/06/18 07:54:29;;;;;;;;;;;22.30;99.90;;;;;;5018704;28;20324;-78
2023/06/18 07:56:54;;;;;;;;;;;22.40;99.90;;;;;;5024357;28;19928;-67
2023/06/18 07:59:20;;;;;;;;;;;22.40;99.90;;;;;;5018078;28;19962;-66
2023/06/18 08:01:46;;;;;;;;;;;22.40;99.90;;;;;;5023224;28;20000;-67
2023/06/18 08:04:12;;;;;;;;;;;22.40;99.90;;;;;;5019647;28;19909;-67
2023/06/18 08:06:37;;;;;;;;;;;22.60;99.90;;;;;;5021368;28;20301;-66
2023/06/18 08:09:03;;;;;;;;;;;22.60;99.90;;;;;;5025708;28;20348;-66
2023/06/18 08:11:29;;;;;;;;;;;22.70;99.90;;;;;;5024132;28;19909;-78
2023/06/18 08:13:54;;;;;;;;;;;22.70;99.90;;;;;;5025852;28;19929;-67
2023/06/18 08:16:21;;;;;;;;;;;22.80;99.90;;;;;;5023387;28;19925;-67
2023/06/18 08:18:47;;;;;;;;;;;22.80;99.90;;;;;;5028230;28;19905;-66
2023/06/18 08:21:13;;;;;;;;;;;22.90;99.90;;;;;;5023255;28;20242;-68
2023/06/18 08:23:38;;;;;;;;;;;23.10;99.90;;;;;;5026287;28;19952;-67
2023/06/18 08:26:04;;;;;;;;;;;23.30;99.90;;;;;;5025561;28;19918;-67
2023/06/18 08:28:30;;;;;;;;;;;23.50;99.90;;;;;;5022492;28;20071;-79
2023/06/18 08:30:55;;;;;;;;;;;23.60;99.90;;;;;;5026869;28;19995;-78
2023/06/18 08:33:21;;;;;;;;;;;23.90;99.90;;;;;;5024417;28;20004;-69
2023/06/18 08:35:47;;;;;;;;;;;24.00;99.90;;;;;;5029046;28;19912;-66
2023/06/18 08:38:12;;;;;;;;;;;24.00;99.90;;;;;;5030071;28;20240;-67
2023/06/18 08:40:55;;;;;;;;;;;24.10;99.90;;;;;;5027763;28;20235;-67
2023/06/18 08:43:26;;;;;;;;;;;24.20;99.90;;;;;;5018924;28;19920;-66
2023/06/18 08:45:53;;;;;;;;;;;24.30;99.90;;;;;;5023529;28;20392;-79
2023/06/18 08:48:26;;;;;;;;;;;24.40;99.90;;;;;;5022479;28;19939;-67
2023/06/18 08:51:04;;;;;;;;;;;24.40;99.90;;;;;;5018015;28;19910;-67
2023/06/18 08:53:39;;;;;;;;;;;24.50;99.90;;;;;;5015050;28;19940;-80
2023/06/18 08:56:06;;;;;;;;;;;24.50;99.90;;;;;;5017510;28;19913;-78
2023/06/18 08:58:33;;;;;;;;;;;24.60;99.70;;;;;;5017102;28;19918;-79
2023/06/18 09:01:00;;;;;;;;;;;24.60;99.90;;;;;;5033361;28;19914;-79
2023/06/18 09:03:26;;;;;;;;;;;24.60;99.80;;;;;;5019492;28;19916;-73
2023/06/18 09:05:53;;;;;;;;;;;24.60;99.90;;;;;;5019918;28;19905;-78
2023/06/18 09:08:19;;;;;;;;;;;24.70;99.90;;;;;;5020983;28;19912;-79
2023/06/18 09:10:45;;;;;;;;;;;24.80;99.90;;;;;;5019530;28;19906;-79
2023/06/18 09:13:10;;;;;;;;;;;24.80;99.60;;;;;;5020079;28;20316;-78
2023/06/18 09:15:36;;;;;;;;;;;24.80;99.90;;;;;;5021800;28;19959;-79
2023/06/18 09:18:02;;;;;;;;;;;24.80;99.90;;;;;;5019338;28;19912;-68
2023/06/18 09:20:27;;;;;;;;;;;24.80;99.90;;;;;;5021983;28;19909;-81
2023/06/18 09:22:53;;;;;;;;;;;24.70;99.90;;;;;;5017381;28;19905;-79
2023/06/18 09:25:19;;;;;;;;;;;24.70;99.90;;;;;;5019429;28;19956;-68
2023/06/18 09:27:46;;;;;;;;;;;24.80;99.90;;;;;;5020496;28;19909;-79
2023/06/18 09:30:23;;;;;;;;;;;24.80;99.90;;;;;;5027173;28;19909;-67
2023/06/18 09:32:49;;;;;;;;;;;24.70;99.90;;;;;;5021748;28;20300;-68
2023/06/18 09:35:18;;;;;;;;;;;24.70;99.80;;;;;;5016909;28;19962;-81
2023/06/18 09:37:44;;;;;;;;;;;24.70;99.90;;;;;;5015536;28;20060;-69
2023/06/18 09:40:20;;;;;;;;;;;24.60;99.90;;;;;;5017200;28;20424;-80
2023/06/18 09:42:46;;;;;;;;;;;24.60;99.90;;;;;;5016563;28;19917;-68
2023/06/18 09:45:14;;;;;;;;;;;24.50;99.90;;;;;;5017012;28;19912;-68
2023/06/18 09:47:41;;;;;;;;;;;24.50;99.90;;;;;;5016227;28;19910;-79
2023/06/18 09:50:08;;;;;;;;;;;24.50;99.90;;;;;;5017284;28;20205;-67
2023/06/18 09:52:46;;;;;;;;;;;24.50;99.90;;;;;;5016978;28;19912;-67
2023/06/18 09:55:26;;;;;;;;;;;24.50;99.90;;;;;;5003668;28;20297;-67
2023/06/18 09:57:52;;;;;;;;;;;24.40;99.90;;;;;;5027268;28;19924;-67
2023/06/18 10:00:17;;;;;;;;;;;24.30;99.90;;;;;;5016490;28;20216;-80
2023/06/18 10:02:43;;;;;;;;;;;24.30;99.90;;;;;;5016537;28;19917;-79
2023/06/18 10:05:09;;;;;;;;;;;24.40;99.90;;;;;;5014777;28;19913;-80
2023/06/18 10:07:36;;;;;;;;;;;24.40;99.90;;;;;;5030262;28;19937;-79
2023/06/18 10:10:02;;;;;;;;;;;24.40;99.90;;;;;;5015692;28;20325;-69
2023/06/18 10:12:28;;;;;;;;;;;24.50;99.90;;;;;;5016162;28;20271;-79
2023/06/18 10:14:55;;;;;;;;;;;24.50;99.40;;;;;;5015775;28;19945;-76
2023/06/18 10:17:23;;;;;;;;;;;24.60;99.90;;;;;;5019257;28;20300;-68
2023/06/18 10:19:52;;;;;;;;;;;24.70;99.40;;;;;;5016336;28;20201;-75
2023/06/18 10:22:18;;;;;;;;;;;24.90;99.90;;;;;;5017047;28;19909;-79
2023/06/18 10:24:44;;;;;;;;;;;25.00;99.90;;;;;;5016251;28;19928;-75
2023/06/18 10:27:10;;;;;;;;;;;25.10;99.90;;;;;;5015281;28;20308;-78
2023/06/18 10:29:36;;;;;;;;;;;25.20;99.90;;;;;;5015182;28;20328;-68
2023/06/18 10:32:03;;;;;;;;;;;25.20;99.90;;;;;;5015150;28;19919;-80
2023/06/18 10:34:29;;;;;;;;;;;25.30;99.80;;;;;;5020640;28;20013;-79
2023/06/18 10:36:55;;;;;;;;;;;25.30;99.90;;;;;;5019575;28;19913;-68
2023/06/18 10:39:21;;;;;;;;;;;25.40;99.90;;;;;;5021717;28;20154;-81
2023/06/18 10:41:46;;;;;;;;;;;25.40;99.70;;;;;;5020575;28;19911;-68
2023/06/18 10:44:12;;;;;;;;;;;25.40;99.60;;;;;;5019355;28;20012;-78
2023/06/18 10:46:38;;;;;;;;;;;25.40;99.90;;;;;;5020793;28;19913;-67
2023/06/18 10:49:16;;;;;;;;;;;25.50;99.90;;;;;;5019758;28;20334;-79
2023/06/18 10:51:43;;;;;;;;;;;25.50;99.90;;;;;;5014873;28;19905;-79
2023/06/18 10:54:22;;;;;;;;;;;25.60;99.90;;;;;;5019675;28;19916;-68
2023/06/18 10:56:53;;;;;;;;;;;25.70;99.40;;;;;;5023536;28;19963;-68
2023/06/18 10:59:37;;;;;;;;;;;25.70;99.90;;;;;;5014883;28;19917;-68
2023/06/18 11:02:03;;;;;;;;;;;25.70;99.50;;;;;;5016361;28;19911;-68
2023/06/18 11:04:31;;;;;;;;;;;25.70;99.50;;;;;;5019947;28;19905;-78
2023/06/18 11:07:13;;;;;;;;;;;25.70;99.70;;;;;;5019493;28;19905;-78
2023/06/18 11:09:50;;;;;;;;;;;25.70;99.90;;;;;;5019434;28;20193;-80
2023/06/18 11:12:25;;;;;;;;;;;25.70;99.90;;;;;;5019514;28;19914;-80
2023/06/18 11:15:11;;;;;;;;;;;25.70;99.90;;;;;;5019373;28;20011;-69
2023/06/18 11:17:37;;;;;;;;;;;25.70;99.90;;;;;;5019667;28;20311;-67
2023/06/18 11:20:04;;;;;;;;;;;25.70;99.90;;;;;;5016377;28;19960;-79
2023/06/18 11:22:30;;;;;;;;;;;25.60;99.90;;;;;;5020151;28;19941;-68
2023/06/18 11:24:57;;;;;;;;;;;25.60;99.90;;;;;;5019436;28;19909;-69
2023/06/18 11:27:24;;;;;;;;;;;25.60;99.90;;;;;;5023199;28;19911;-76
2023/06/18 11:29:49;;;;;;;;;;;25.60;99.90;;;;;;5019550;28;19905;-67
2023/06/18 11:32:16;;;;;;;;;;;25.60;99.90;;;;;;5022221;28;19924;-69
2023/06/18 11:34:44;;;;;;;;;;;25.70;99.90;;;;;;5014707;28;19917;-68
2023/06/18 11:37:10;;;;;;;;;;;25.60;99.90;;;;;;5015239;28;19905;-79
2023/06/18 11:39:36;;;;;;;;;;;25.60;99.90;;;;;;5014894;28;19952;-79
2023/06/18 11:42:11;;;;;;;;;;;25.70;99.90;;;;;;5014211;28;19937;-67
2023/06/18 11:44:50;;;;;;;;;;;25.70;99.90;;;;;;5014762;28;19905;-79
2023/06/18 11:47:16;;;;;;;;;;;25.70;99.90;;;;;;5015143;28;19913;-68
2023/06/18 11:49:45;;;;;;;;;;;25.70;99.90;;;;;;5014654;28;20629;-68
2023/06/18 11:52:12;;;;;;;;;;;25.80;99.90;;;;;;5008484;28;19917;-79
2023/06/18 11:54:40;;;;;;;;;;;25.80;99.90;;;;;;5032839;28;20268;-78
2023/06/18 11:57:07;;;;;;;;;;;25.70;99.90;;;;;;5026065;28;20308;-80
2023/06/18 11:59:33;;;;;;;;;;;25.70;99.90;;;;;;5031148;28;20223;-73
2023/06/18 12:02:09;;;;;;;;;;;25.70;99.90;;;;;;5026317;28;19955;-78
2023/06/18 12:04:35;;;;;;;;;;;25.60;99.90;;;;;;5022147;28;19909;-78
2023/06/18 12:07:01;;;;;;;;;;;25.70;99.90;;;;;;5005180;28;19983;-71
2023/06/18 12:09:30;;;;;;;;;;;25.70;99.90;;;;;;5017201;28;20007;-78
2023/06/18 12:12:01;;;;;;;;;;;25.80;99.90;;;;;;5025185;28;20204;-68
2023/06/18 12:14:33;;;;;;;;;;;25.80;99.90;;;;;;5028464;28;19967;-67
2023/06/18 12:17:01;;;;;;;;;;;25.90;99.90;;;;;;5030800;28;20204;-67
2023/06/18 12:19:27;;;;;;;;;;;25.90;99.90;;;;;;5026569;28;20384;-68
2023/06/18 12:21:53;;;;;;;;;;;25.90;99.90;;;;;;5024452;28;19913;-68
2023/06/18 12:24:18;;;;;;;;;;;25.90;99.90;;;;;;5019920;28;19975;-68
2023/06/18 12:26:44;;;;;;;;;;;25.90;99.90;;;;;;5019376;28;19987;-68
2023/06/18 12:29:11;;;;;;;;;;;25.80;99.90;;;;;;5028792;28;19916;-67
2023/06/18 12:31:37;;;;;;;;;;;25.80;99.90;;;;;;5020010;28;20324;-78
2023/06/18 12:34:03;;;;;;;;;;;25.70;99.90;;;;;;5016508;28;19928;-77
2023/06/18 12:36:29;;;;;;;;;;;25.70;99.90;;;;;;5033318;28;19909;-68
2023/06/18 12:38:55;;;;;;;;;;;25.70;99.90;;;;;;5023970;28;19909;-68
2023/06/18 12:41:25;;;;;;;;;;;25.70;99.90;;;;;;5022732;28;19931;-67
2023/06/18 12:43:54;;;;;;;;;;;25.60;99.90;;;;;;5033789;28;20219;-68
2023/06/18 12:46:26;;;;;;;;;;;25.60;99.90;;;;;;5031519;28;19914;-67
2023/06/18 12:48:52;;;;;;;;;;;25.60;99.90;;;;;;5034759;28;19905;-68
2023/06/18 12:51:18;;;;;;;;;;;25.70;99.90;;;;;;5023743;28;19928;-68
2023/06/18 12:53:43;;;;;;;;;;;25.70;99.90;;;;;;5037423;28;19913;-68
2023/06/18 12:56:22;;;;;;;;;;;25.70;99.90;;;;;;5036503;28;19909;-68
2023/06/18 12:58:50;;;;;;;;;;;25.70;99.90;;;;;;5028486;28;19913;-68
2023/06/18 13:01:16;;;;;;;;;;;25.70;99.90;;;;;;5027700;28;19920;-67
2023/06/18 13:03:42;;;;;;;;;;;25.80;99.90;;;;;;5023177;28;19905;-67
2023/06/18 13:06:08;;;;;;;;;;;25.80;99.90;;;;;;5029010;28;19911;-78
2023/06/18 13:08:34;;;;;;;;;;;25.80;99.90;;;;;;5026484;28;19927;-68
2023/06/18 13:11:00;;;;;;;;;;;25.90;99.90;;;;;;5028085;28;19921;-67
2023/06/18 13:13:25;;;;;;;;;;;25.80;99.90;;;;;;5018887;28;19909;-67
2023/06/18 13:15:54;;;;;;;;;;;25.80;99.90;;;;;;5028888;28;19958;-67
2023/06/18 13:18:20;;;;;;;;;;;25.80;99.90;;;;;;5017378;28;20371;-67
2023/06/18 13:20:47;;;;;;;;;;;25.70;99.90;;;;;;5021702;28;20215;-67
2023/06/18 13:23:13;;;;;;;;;;;25.70;99.90;;;;;;5024163;28;19913;-68
2023/06/18 13:25:39;;;;;;;;;;;25.60;99.90;;;;;;5031145;28;19909;-68
2023/06/18 13:28:05;;;;;;;;;;;25.50;99.90;;;;;;5019442;28;20024;-67
2023/06/18 13:30:31;;;;;;;;;;;25.40;99.90;;;;;;5028265;28;19957;-80
2023/06/18 13:32:57;;;;;;;;;;;25.40;99.90;;;;;;5022434;28;20322;-67
2023/06/18 13:35:24;;;;;;;;;;;25.30;99.90;;;;;;5023271;28;19955;-67
2023/06/18 13:37:50;;;;;;;;;;;25.30;99.90;;;;;;5030428;28;20308;-67
2023/06/18 13:40:16;;;;;;;;;;;25.20;99.90;;;;;;5026325;28;19909;-80
2023/06/18 13:42:41;;;;;;;;;;;25.30;99.90;;;;;;5035538;28;19913;-68
2023/06/18 13:45:07;;;;;;;;;;;25.20;99.90;;;;;;5027586;28;20417;-66
2023/06/18 13:47:33;;;;;;;;;;;25.20;99.90;;;;;;5021114;28;19945;-67
2023/06/18 13:49:59;;;;;;;;;;;25.20;99.90;;;;;;5026333;28;19905;-67
2023/06/18 13:52:25;;;;;;;;;;;25.20;99.90;;;;;;5014875;28;19913;-66
2023/06/18 13:54:51;;;;;;;;;;;25.10;99.80;;;;;;5022892;28;19913;-66
2023/06/18 13:57:18;;;;;;;;;;;25.00;99.30;;;;;;5021997;28;19968;-66
2023/06/18 13:59:43;;;;;;;;;;;24.80;99.60;;;;;;5021717;28;19928;-67
2023/06/18 14:02:09;;;;;;;;;;;24.70;99.20;;;;;;5023958;28;20288;-66
2023/06/18 14:04:35;;;;;;;;;;;24.50;99.20;;;;;;5026541;28;19909;-66
2023/06/18 14:07:02;;;;;;;;;;;24.40;99.80;;;;;;5019580;28;20264;-72
2023/06/18 14:09:28;;;;;;;;;;;24.30;99.90;;;;;;5025741;28;19909;-67
2023/06/18 14:11:53;;;;;;;;;;;24.20;99.90;;;;;;5025851;28;20220;-68
2023/06/18 14:14:19;;;;;;;;;;;24.20;99.90;;;;;;5025688;28;19916;-68